Time;durP1;ratioP1;P1;durP2;ratioP2;P2;SDS_P1;SDS_P2;PMS_P1;PMS_P2;Temp;Humidity;BMP_temperature;BMP_pressure;BME280_temperature;BME280_humidity;BME280_pressure;Samples;Min_cycle;Max_cycle;Signal;HPM_P1;HPM_P2
2023/01/29 00:01:18;;;;;;;;;;;;;;;1.61;100.00;101554.34;5101915;28;19928;-81
2023/01/29 00:03:45;;;;;;;;;;;;;;;1.61;100.00;101562.09;5104251;28;19927;-80
2023/01/29 00:06:11;;;;;;;;;;;;;;;1.74;100.00;101560.56;5102242;28;19980;-81
2023/01/29 00:08:38;;;;;;;;;;;;;;;1.83;100.00;101548.59;5104482;28;19928;-80
2023/01/29 00:11:06;;;;;;;;;;;;;;;1.73;100.00;101530.41;5101700;28;19930;-81
2023/01/29 00:13:35;;;;;;;;;;;;;;;1.61;100.00;101516.53;5107250;28;19919;-80
2023/01/29 00:16:02;;;;;;;;;;;;;;;1.50;100.00;101502.59;5114512;28;20365;-81
2023/01/29 00:18:29;;;;;;;;;;;;;;;1.51;100.00;101500.03;5111032;28;19955;-80
2023/01/29 00:20:56;;;;;;;;;;;;;;;1.67;100.00;101493.34;5114233;28;20262;-80
2023/01/29 00:23:23;;;;;;;;;;;;;;;1.70;100.00;101493.38;5097929;28;19924;-81
2023/01/29 00:25:50;;;;;;;;;;;;;;;1.82;100.00;101507.25;5114824;28;19927;-80
2023/01/29 00:28:17;;;;;;;;;;;;;;;1.94;100.00;101528.06;5102833;28;19927;-81
2023/01/29 00:30:43;;;;;;;;;;;;;;;2.05;100.00;101510.97;5112594;28;19920;-80
2023/01/29 00:33:12;;;;;;;;;;;;;;;2.07;100.00;101501.50;5103025;28;20038;-80
2023/01/29 00:35:40;;;;;;;;;;;;;;;1.99;100.00;101484.22;5097829;28;19960;-81
2023/01/29 00:38:07;;;;;;;;;;;;;;;1.99;100.00;101490.22;5110610;28;19935;-81
2023/01/29 00:44:56;;;;;;;;;;;;;;;1.95;100.00;101490.16;5114764;28;19923;-81
2023/01/29 00:46:08;;;;;;;;;;;;;;;1.82;100.00;101466.81;5113824;28;19923;-81
2023/01/29 00:48:35;;;;;;;;;;;;;;;1.82;100.00;101453.03;5111801;28;19920;-81
2023/01/29 00:51:02;;;;;;;;;;;;;;;1.84;100.00;101456.50;5112122;28;19928;-81
2023/01/29 00:53:28;;;;;;;;;;;;;;;1.87;100.00;101452.22;5107637;28;20364;-81
2023/01/29 00:55:55;;;;;;;;;;;;;;;1.92;100.00;101452.28;5112817;28;19923;-80
2023/01/29 00:58:26;;;;;;;;;;;;;;;1.97;100.00;101466.09;5103104;28;20007;-81
2023/01/29 01:00:54;;;;;;;;;;;;;;;2.05;100.00;101469.63;5105044;28;19972;-80
2023/01/29 01:03:21;;;;;;;;;;;;;;;1.94;100.00;101463.50;5112060;28;19920;-81
2023/01/29 01:05:47;;;;;;;;;;;;;;;1.88;100.00;101468.59;5112309;28;19923;-80
2023/01/29 01:11:01;;;;;;;;;;;;;;;1.92;100.00;101477.25;5107772;28;19964;-81
2023/01/29 01:13:30;;;;;;;;;;;;;;;1.93;100.00;101471.22;5112675;28;19927;-81
2023/01/29 01:15:56;;;;;;;;;;;;;;;1.88;100.00;101455.69;5111203;28;19920;-81
2023/01/29 01:18:23;;;;;;;;;;;;;;;1.85;100.00;101427.25;5106668;28;20033;-81
2023/01/29 01:20:50;;;;;;;;;;;;;;;1.92;100.00;101430.75;5113143;28;20439;-81
2023/01/29 01:23:18;;;;;;;;;;;;;;;2.04;100.00;101425.72;5097698;28;19992;-80
2023/01/29 01:25:45;;;;;;;;;;;;;;;2.03;100.00;101424.81;5113308;28;19919;-80
2023/01/29 01:28:11;;;;;;;;;;;;;;;2.16;100.00;101401.66;5105842;28;19920;-81
2023/01/29 01:30:38;;;;;;;;;;;;;;;2.27;100.00;101411.25;5111679;28;19920;-80
2023/01/29 01:33:05;;;;;;;;;;;;;;;2.43;100.00;101414.81;5112748;28;20011;-81
2023/01/29 01:35:31;;;;;;;;;;;;;;;2.49;100.00;101418.28;5112208;28;19954;-81
2023/01/29 01:37:58;;;;;;;;;;;;;;;2.55;100.00;101418.31;5106947;28;19973;-81
2023/01/29 01:40:25;;;;;;;;;;;;;;;2.57;100.00;101406.28;5108382;28;19919;-81
2023/01/29 01:42:54;;;;;;;;;;;;;;;2.61;100.00;101397.69;5113277;28;19997;-80
2023/01/29 01:45:21;;;;;;;;;;;;;;;2.56;100.00;101379.53;5102606;28;19986;-80
2023/01/29 01:47:53;;;;;;;;;;;;;;;2.71;100.00;101367.56;5109427;28;19984;-80
2023/01/29 01:50:46;;;;;;;;;;;;;;;2.92;100.00;101351.28;5105679;28;20380;-81
2023/01/29 01:53:15;;;;;;;;;;;;;;;3.17;100.00;101355.69;5107490;28;19945;-81
2023/01/29 01:55:50;;;;;;;;;;;;;;;3.22;100.00;101355.69;5112484;28;19924;-81
2023/01/29 01:58:23;;;;;;;;;;;;;;;3.34;100.00;101360.03;5103567;28;20327;-81
2023/01/29 02:00:49;;;;;;;;;;;;;;;3.40;100.00;101355.72;5105399;28;19920;-81
2023/01/29 02:11:42;;;;;;;;;;;;;;;2.82;100.00;101346.06;5099504;28;19924;-81
2023/01/29 02:14:09;;;;;;;;;;;;;;;2.83;100.00;101324.53;5110880;28;19927;-81
2023/01/29 02:16:36;;;;;;;;;;;;;;;2.79;100.00;101317.59;5112308;28;19942;-81
2023/01/29 02:19:13;;;;;;;;;;;;;;;2.82;100.00;101309.00;5109511;28;19968;-81
2023/01/29 02:21:43;;;;;;;;;;;;;;;2.78;100.00;101310.72;5112868;28;19927;-81
2023/01/29 02:24:09;;;;;;;;;;;;;;;2.81;100.00;101302.94;5102814;28;19919;-81
2023/01/29 02:26:46;;;;;;;;;;;;;;;2.74;100.00;101297.75;5112658;28;20269;-81
2023/01/29 02:29:21;;;;;;;;;;;;;;;2.72;100.00;101294.31;5102499;28;19932;-81
2023/01/29 02:31:51;;;;;;;;;;;;;;;2.62;100.00;101278.75;5112035;28;19950;-81
2023/01/29 02:34:30;;;;;;;;;;;;;;;2.55;100.00;101268.38;5109689;28;19927;-81
2023/01/29 02:36:57;;;;;;;;;;;;;;;2.62;100.00;101273.59;5111453;28;19920;-81
2023/01/29 02:39:32;;;;;;;;;;;;;;;2.67;100.00;101268.41;5101555;28;19923;-81
2023/01/29 02:42:18;;;;;;;;;;;;;;;2.68;100.00;101254.66;5111844;28;19919;-81
2023/01/29 02:44:56;;;;;;;;;;;;;;;2.81;100.00;101253.81;5110705;28;19919;-81
2023/01/29 02:47:40;;;;;;;;;;;;;;;2.88;100.00;101252.09;5112238;28;19927;-81
2023/01/29 02:50:07;;;;;;;;;;;;;;;2.92;100.00;101251.28;5102940;28;19927;-81
2023/01/29 02:52:43;;;;;;;;;;;;;;;3.03;100.00;101246.13;5110558;28;19920;-81
2023/01/29 02:55:17;;;;;;;;;;;;;;;3.08;100.00;101247.00;5114923;28;19959;-81
2023/01/29 02:57:45;;;;;;;;;;;;;;;3.16;100.00;101244.41;5112662;28;20395;-81
2023/01/29 03:00:17;;;;;;;;;;;;;;;3.21;100.00;101233.19;5104510;28;19973;-81
2023/01/29 03:02:59;;;;;;;;;;;;;;;3.32;100.00;101229.75;5116229;28;20266;-81
2023/01/29 03:05:53;;;;;;;;;;;;;;;3.38;100.00;101227.16;5096346;28;19920;-81
2023/01/29 03:08:35;;;;;;;;;;;;;;;3.42;100.00;101213.34;5079315;28;19923;-81
2023/01/29 03:11:04;;;;;;;;;;;;;;;3.52;100.00;101212.47;5112692;28;19920;-81
2023/01/29 03:13:43;;;;;;;;;;;;;;;3.63;100.00;101196.94;5114733;28;20196;-82
2023/01/29 03:16:27;;;;;;;;;;;;;;;3.68;100.00;101195.19;5116371;28;19920;-82
2023/01/29 03:19:02;;;;;;;;;;;;;;;3.71;100.00;101184.81;5113522;28;19928;-82
2023/01/29 03:33:23;;;;;;;;;;;;;;;3.85;100.00;101152.84;5072511;28;19932;-82
2023/01/29 03:35:52;;;;;;;;;;;;;;;3.94;100.00;101145.03;5090175;27;19919;-81
2023/01/29 03:38:19;;;;;;;;;;;;;;;4.08;100.00;101145.00;5105873;28;19924;-81
2023/01/29 03:40:53;;;;;;;;;;;;;;;4.05;100.00;101138.09;5110327;28;19945;-81
2023/01/29 03:43:38;;;;;;;;;;;;;;;4.08;100.00;101135.47;5114101;28;19965;-81
2023/01/29 03:46:17;;;;;;;;;;;;;;;4.12;100.00;101128.56;5113303;28;20756;-81
2023/01/29 03:49:01;;;;;;;;;;;;;;;4.16;100.00;101107.81;5110983;28;19945;-81
2023/01/29 03:51:34;;;;;;;;;;;;;;;4.15;100.00;101103.50;5101808;28;19923;-81
2023/01/29 03:54:01;;;;;;;;;;;;;;;4.21;100.00;101094.81;5110082;28;19919;-81
2023/01/29 03:56:27;;;;;;;;;;;;;;;4.23;100.00;101089.63;5113641;28;19920;-81
2023/01/29 03:59:14;;;;;;;;;;;;;;;4.25;100.00;101090.47;5108754;28;20420;-81
2023/01/29 04:01:47;;;;;;;;;;;;;;;4.34;100.00;101085.25;5102780;28;20613;-81
2023/01/29 04:04:15;;;;;;;;;;;;;;;4.42;100.00;101062.72;5114991;28;20048;-81
2023/01/29 04:06:44;;;;;;;;;;;;;;;4.46;100.00;101066.13;5107746;28;20348;-81
2023/01/29 04:09:11;;;;;;;;;;;;;;;4.52;100.00;101066.13;5105197;28;19920;-82
2023/01/29 04:11:40;;;;;;;;;;;;;;;4.62;100.00;101077.25;5114343;28;19934;-81
2023/01/29 04:14:08;;;;;;;;;;;;;;;4.52;100.00;101084.25;5114889;28;19972;-82
2023/01/29 04:16:37;;;;;;;;;;;;;;;4.62;100.00;101078.16;5114927;28;19943;-82
2023/01/29 04:19:04;;;;;;;;;;;;;;;4.70;100.00;101068.56;5106668;28;20448;-82
2023/01/29 04:21:31;;;;;;;;;;;;;;;4.82;100.00;101061.56;5099380;28;19920;-82
2023/01/29 04:23:58;;;;;;;;;;;;;;;4.82;100.00;101059.81;5102309;28;19923;-82
2023/01/29 04:26:27;;;;;;;;;;;;;;;4.80;100.00;101056.38;5101304;28;20003;-82
2023/01/29 04:28:57;;;;;;;;;;;;;;;4.79;100.00;101059.84;5107932;28;19923;-82
2023/01/29 04:31:27;;;;;;;;;;;;;;;4.76;100.00;101065.03;5113312;28;19920;-82
2023/01/29 04:33:57;;;;;;;;;;;;;;;4.74;100.00;101053.81;5114450;28;19920;-82
2023/01/29 04:36:37;;;;;;;;;;;;;;;4.72;100.00;101052.97;5114010;28;20376;-82
2023/01/29 04:39:06;;;;;;;;;;;;;;;4.79;100.00;101049.47;5102288;28;19920;-82
2023/01/29 04:41:41;;;;;;;;;;;;;;;4.73;100.00;101042.59;5113944;28;19926;-82
2023/01/29 04:44:11;;;;;;;;;;;;;;;4.60;100.00;101027.13;5112821;28;20009;-81
2023/01/29 04:46:46;;;;;;;;;;;;;;;4.61;100.00;101024.53;5112874;28;19920;-81
2023/01/29 04:49:13;;;;;;;;;;;;;;;4.56;100.00;101013.34;5101346;28;19938;-83
2023/01/29 04:51:43;;;;;;;;;;;;;;;4.60;100.00;101006.41;5113045;28;19920;-82
2023/01/29 04:54:22;;;;;;;;;;;;;;;4.57;100.00;100995.19;5111808;28;19920;-82
2023/01/29 04:57:00;;;;;;;;;;;;;;;4.48;100.00;100992.66;5103413;28;19924;-82
2023/01/29 04:59:31;;;;;;;;;;;;;;;4.51;100.00;100989.19;5098332;28;20364;-82
2023/01/29 05:01:59;;;;;;;;;;;;;;;4.55;100.00;100988.25;5112956;28;19920;-82
2023/01/29 05:04:26;;;;;;;;;;;;;;;4.66;100.00;100989.06;5113489;28;20006;-83
2023/01/29 05:06:54;;;;;;;;;;;;;;;4.66;100.00;100983.00;5111968;28;20426;-84
2023/01/29 05:09:22;;;;;;;;;;;;;;;4.79;100.00;100963.84;5103360;28;19919;-84
2023/01/29 05:11:49;;;;;;;;;;;;;;;4.87;100.00;100955.97;5108422;28;19969;-84
2023/01/29 05:14:17;;;;;;;;;;;;;;;4.75;100.00;100955.22;5113190;28;19927;-84
2023/01/29 05:16:46;;;;;;;;;;;;;;;4.82;100.00;100945.66;5097237;28;20308;-83
2023/01/29 05:19:14;;;;;;;;;;;;;;;4.86;100.00;100934.38;5111887;28;19934;-83
2023/01/29 05:21:43;;;;;;;;;;;;;;;4.86;100.00;100926.59;5099368;28;19955;-84
2023/01/29 05:24:10;;;;;;;;;;;;;;;4.92;100.00;100923.94;5111774;28;19920;-83
2023/01/29 05:29:21;;;;;;;;;;;;;;;4.82;100.00;100917.13;5105392;28;19927;-83
2023/01/29 05:31:48;;;;;;;;;;;;;;;4.81;100.00;100925.78;5107764;28;20365;-83
2023/01/29 05:34:15;;;;;;;;;;;;;;;4.82;100.00;100931.84;5113729;28;19919;-83
2023/01/29 05:36:41;;;;;;;;;;;;;;;4.88;100.00;100930.00;5112465;28;19920;-84
2023/01/29 05:39:08;;;;;;;;;;;;;;;4.95;100.00;100917.84;5103224;28;20406;-81
2023/01/29 05:41:34;;;;;;;;;;;;;;;4.98;100.00;100904.84;5113065;28;19927;-82
2023/01/29 05:44:01;;;;;;;;;;;;;;;4.97;100.00;100903.09;5111630;28;19976;-82
2023/01/29 05:46:27;;;;;;;;;;;;;;;5.02;100.00;100903.91;5111936;28;19924;-82
2023/01/29 05:48:54;;;;;;;;;;;;;;;5.09;100.00;100908.16;5097990;28;20384;-84
2023/01/29 05:51:21;;;;;;;;;;;;;;;5.16;100.00;100900.31;5110101;28;20376;-85
2023/01/29 05:53:47;;;;;;;;;;;;;;;5.25;100.00;100889.78;5105792;28;19920;-83
2023/01/29 05:56:14;;;;;;;;;;;;;;;5.26;100.00;100884.59;5112796;28;19923;-82
2023/01/29 05:58:41;;;;;;;;;;;;;;;5.16;100.00;100863.97;5100470;28;20355;-83
2023/01/29 06:01:09;;;;;;;;;;;;;;;5.08;100.00;100864.03;5110295;28;20311;-82
2023/01/29 06:03:35;;;;;;;;;;;;;;;5.11;100.00;100870.06;5111326;28;20311;-82
2023/01/29 06:06:02;;;;;;;;;;;;;;;5.02;100.00;100869.31;5106276;28;19920;-82
2023/01/29 06:08:28;;;;;;;;;;;;;;;5.02;100.00;100856.34;5102573;28;19919;-82
2023/01/29 06:10:55;;;;;;;;;;;;;;;5.01;100.00;100852.03;5106757;28;20354;-82
2023/01/29 06:13:21;;;;;;;;;;;;;;;4.94;100.00;100851.28;5097102;28;20478;-82
2023/01/29 06:15:49;;;;;;;;;;;;;;;4.91;100.00;100859.09;5111686;28;19920;-84
2023/01/29 06:18:15;;;;;;;;;;;;;;;4.82;100.00;100839.28;5107236;28;20439;-83
2023/01/29 06:20:42;;;;;;;;;;;;;;;4.81;100.00;100837.56;5104679;28;20585;-82
2023/01/29 06:23:09;;;;;;;;;;;;;;;4.81;100.00;100841.91;5105579;28;19973;-82
2023/01/29 06:25:35;;;;;;;;;;;;;;;4.63;100.00;100838.66;5111166;28;19972;-82
2023/01/29 06:28:02;;;;;;;;;;;;;;;4.55;100.00;100824.91;5104628;28;19973;-84
2023/01/29 06:30:28;;;;;;;;;;;;;;;4.62;100.00;100820.50;5110604;28;19923;-83
2023/01/29 06:32:57;;;;;;;;;;;;;;;4.66;100.00;100823.06;5107687;28;20332;-83
2023/01/29 06:35:24;;;;;;;;;;;;;;;4.60;100.00;100828.31;5098102;28;20265;-83
2023/01/29 06:37:51;;;;;;;;;;;;;;;4.55;100.00;100830.97;5107960;28;19943;-83
2023/01/29 06:40:18;;;;;;;;;;;;;;;4.56;100.00;100831.81;5107018;28;19920;-84
2023/01/29 06:42:44;;;;;;;;;;;;;;;4.56;100.00;100834.41;5111233;28;20303;-83
2023/01/29 06:45:11;;;;;;;;;;;;;;;4.61;100.00;100830.03;5111370;28;19972;-83
2023/01/29 06:47:38;;;;;;;;;;;;;;;4.64;100.00;100835.19;5095693;28;19927;-83
2023/01/29 06:50:04;;;;;;;;;;;;;;;4.63;100.00;100833.47;5111058;28;19919;-84
2023/01/29 06:52:31;;;;;;;;;;;;;;;4.71;100.00;100848.91;5097586;28;19926;-83
2023/01/29 06:54:58;;;;;;;;;;;;;;;4.68;100.00;100843.78;5112302;28;19930;-82
2023/01/29 06:57:27;;;;;;;;;;;;;;;4.63;100.00;100833.47;5099800;28;19920;-84
2023/01/29 06:59:54;;;;;;;;;;;;;;;4.58;100.00;100835.25;5099967;28;19931;-82
2023/01/29 07:02:20;;;;;;;;;;;;;;;4.59;100.00;100824.00;5099975;28;19973;-82
2023/01/29 07:04:47;;;;;;;;;;;;;;;4.63;100.00;100824.81;5106797;28;21563;-82
2023/01/29 07:07:13;;;;;;;;;;;;;;;4.54;100.00;100821.44;5110276;28;20376;-82
2023/01/29 07:09:40;;;;;;;;;;;;;;;4.60;100.00;100823.09;5099219;28;19927;-82
2023/01/29 07:12:08;;;;;;;;;;;;;;;4.61;100.00;100819.66;5104815;28;19920;-82
2023/01/29 07:14:35;;;;;;;;;;;;;;;4.63;100.00;100799.75;5108052;28;19919;-82
2023/01/29 07:17:01;;;;;;;;;;;;;;;4.68;100.00;100805.72;5110648;28;19943;-83
2023/01/29 07:19:28;;;;;;;;;;;;;;;4.67;100.00;100809.19;5109314;28;19943;-83
2023/01/29 07:21:55;;;;;;;;;;;;;;;4.59;100.00;100802.41;5108997;28;19919;-83
2023/01/29 07:24:23;;;;;;;;;;;;;;;4.48;100.00;100792.13;5097999;28;19973;-83
2023/01/29 07:26:49;;;;;;;;;;;;;;;4.62;100.00;100797.16;5110751;28;20391;-81
2023/01/29 07:29:16;;;;;;;;;;;;;;;4.85;100.00;100815.91;5106045;28;19920;-82
2023/01/29 07:31:42;;;;;;;;;;;;;;;4.97;100.00;100788.94;5110139;28;19920;-84
2023/01/29 07:34:09;;;;;;;;;;;;;;;5.13;100.00;100763.63;5111469;28;19927;-83
2023/01/29 07:36:36;;;;;;;;;;;;;;;5.19;100.00;100753.16;5110750;28;20384;-83
2023/01/29 07:39:02;;;;;;;;;;;;;;;5.23;100.00;100761.75;5099656;28;19926;-84
2023/01/29 07:41:29;;;;;;;;;;;;;;;5.28;100.00;100763.41;5110740;28;19947;-84
2023/01/29 07:43:56;;;;;;;;;;;;;;;5.40;100.00;100764.06;5110642;28;20322;-85
2023/01/29 07:46:22;;;;;;;;;;;;;;;5.53;100.00;100752.63;5115521;28;19925;-83
2023/01/29 07:48:49;;;;;;;;;;;;;;;5.53;100.00;100757.81;5105003;28;19919;-83
2023/01/29 07:51:17;;;;;;;;;;;;;;;5.47;100.00;100751.00;5114337;28;19969;-83
2023/01/29 07:53:43;;;;;;;;;;;;;;;5.55;100.00;100755.19;5115212;28;19973;-82
2023/01/29 07:56:10;;;;;;;;;;;;;;;5.51;100.00;100751.78;5114154;28;19920;-83
2023/01/29 07:58:37;;;;;;;;;;;;;;;5.41;100.00;100760.63;5102577;28;19942;-83
2023/01/29 08:01:04;;;;;;;;;;;;;;;5.41;100.00;100747.63;5112444;28;19969;-83
2023/01/29 08:03:30;;;;;;;;;;;;;;;5.54;100.00;100754.31;5115415;28;19923;-83
2023/01/29 08:05:57;;;;;;;;;;;;;;;5.50;100.00;100757.84;5110181;28;20365;-83
2023/01/29 08:08:24;;;;;;;;;;;;;;;5.50;100.00;100740.53;5111860;28;19995;-84
2023/01/29 08:10:51;;;;;;;;;;;;;;;5.58;100.00;100748.22;5114217;27;19939;-82
2023/01/29 08:13:17;;;;;;;;;;;;;;;5.60;100.00;100732.59;5110664;28;19939;-82
2023/01/29 08:15:44;;;;;;;;;;;;;;;5.56;100.00;100733.53;5113027;28;20373;-83
2023/01/29 08:18:11;;;;;;;;;;;;;;;5.55;100.00;100731.81;5111876;28;19926;-83
2023/01/29 08:20:38;;;;;;;;;;;;;;;5.57;100.00;100730.91;5108803;28;19919;-82
2023/01/29 08:23:05;;;;;;;;;;;;;;;5.58;100.00;100726.56;5107729;28;19920;-82
2023/01/29 08:25:33;;;;;;;;;;;;;;;5.51;100.00;100728.44;5111924;28;19930;-82
2023/01/29 08:28:00;;;;;;;;;;;;;;;5.63;100.00;100715.22;5104661;28;20009;-83
2023/01/29 08:30:28;;;;;;;;;;;;;;;5.60;100.00;100704.03;5109498;28;20254;-84
2023/01/29 08:32:54;;;;;;;;;;;;;;;5.68;100.00;100697.81;5108878;28;20333;-82
2023/01/29 08:35:21;;;;;;;;;;;;;;;5.66;100.00;100694.38;5113974;28;20422;-83
2023/01/29 08:37:55;;;;;;;;;;;;;;;5.75;100.00;100697.69;5105673;27;20500;-83
2023/01/29 08:40:21;;;;;;;;;;;;;;;5.79;100.00;100710.63;5107747;28;20377;-83
2023/01/29 08:42:48;;;;;;;;;;;;;;;5.76;100.00;100708.06;5103767;28;19989;-83
2023/01/29 08:45:15;;;;;;;;;;;;;;;5.75;100.00;100702.91;5113884;28;20444;-83
2023/01/29 08:47:45;;;;;;;;;;;;;;;5.81;100.00;100708.00;5112421;28;19923;-83
2023/01/29 08:50:12;;;;;;;;;;;;;;;5.80;100.00;100694.13;5111608;28;19928;-83
2023/01/29 08:52:39;;;;;;;;;;;;;;;5.79;100.00;100700.22;5110194;28;19920;-83
2023/01/29 08:55:05;;;;;;;;;;;;;;;5.82;100.00;100692.34;5112981;28;19931;-83
2023/01/29 08:57:32;;;;;;;;;;;;;;;5.81;100.00;100702.78;5096883;28;19942;-83
2023/01/29 08:59:58;;;;;;;;;;;;;;;5.84;100.00;100705.31;5101849;28;19924;-83
2023/01/29 09:02:25;;;;;;;;;;;;;;;5.81;100.00;100695.00;5108021;28;19927;-83
2023/01/29 09:04:52;;;;;;;;;;;;;;;5.83;100.00;100683.69;5107874;28;19920;-83
2023/01/29 09:07:20;;;;;;;;;;;;;;;5.92;100.00;100695.66;5102156;28;19927;-83
2023/01/29 09:09:47;;;;;;;;;;;;;;;5.90;100.00;100666.25;5103895;28;19920;-83
2023/01/29 09:12:13;;;;;;;;;;;;;;;5.92;100.00;100653.22;5111281;28;19942;-83
2023/01/29 09:14:40;;;;;;;;;;;;;;;5.84;100.00;100638.63;5113904;28;20269;-83
2023/01/29 09:17:08;;;;;;;;;;;;;;;5.91;100.00;100636.75;5108373;28;20012;-83
2023/01/29 09:19:35;;;;;;;;;;;;;;;5.93;100.00;100640.16;5105966;28;19928;-83
2023/01/29 09:22:02;;;;;;;;;;;;;;;6.00;100.00;100623.63;5113485;28;19972;-83
2023/01/29 09:24:28;;;;;;;;;;;;;;;5.95;100.00;100622.81;5107013;28;19969;-83
2023/01/29 09:26:55;;;;;;;;;;;;;;;5.93;100.00;100610.72;5105705;28;19923;-83
2023/01/29 09:29:22;;;;;;;;;;;;;;;6.00;100.00;100591.56;5100691;28;19945;-83
2023/01/29 09:31:48;;;;;;;;;;;;;;;6.09;100.00;100596.56;5107726;28;19927;-83
2023/01/29 09:34:15;;;;;;;;;;;;;;;6.15;100.00;100593.00;5111380;28;20445;-82
2023/01/29 09:36:42;;;;;;;;;;;;;;;6.12;100.00;100586.09;5102558;28;19946;-83
2023/01/29 09:39:08;;;;;;;;;;;;;;;6.21;100.00;100582.44;5111657;28;19927;-82
2023/01/29 09:41:51;;;;;;;;;;;;;;;6.20;100.00;100571.19;5111792;28;19927;-83
2023/01/29 09:44:36;;;;;;;;;;;;;;;6.20;100.00;100559.97;5108121;28;19924;-83
2023/01/29 09:47:06;;;;;;;;;;;;;;;6.19;100.00;100548.69;5106583;28;19919;-82
2023/01/29 09:49:40;;;;;;;;;;;;;;;6.20;100.00;100542.59;5107966;28;19927;-82
2023/01/29 09:52:07;;;;;;;;;;;;;;;6.25;100.00;100527.75;5106191;28;19920;-82
2023/01/29 09:54:36;;;;;;;;;;;;;;;6.33;100.00;100516.31;5111291;28;20014;-82
2023/01/29 09:57:04;;;;;;;;;;;;;;;6.40;100.00;100507.47;5104095;28;19926;-82
2023/01/29 09:59:31;;;;;;;;;;;;;;;6.40;100.00;100508.31;5108518;28;19926;-83
2023/01/29 10:02:03;;;;;;;;;;;;;;;6.39;100.00;100503.16;5111591;28;20289;-83
2023/01/29 10:04:38;;;;;;;;;;;;;;;6.36;100.00;100479.84;5106974;28;20381;-82
2023/01/29 10:07:15;;;;;;;;;;;;;;;6.33;100.00;100479.91;5107912;28;19923;-82
2023/01/29 10:09:45;;;;;;;;;;;;;;;6.35;100.00;100473.78;5105871;28;19927;-83
2023/01/29 10:12:14;;;;;;;;;;;;;;;6.50;100.00;100464.75;5104703;28;19950;-82
2023/01/29 10:15:00;;;;;;;;;;;;;;;6.62;100.00;100461.84;5101942;28;19928;-83
2023/01/29 10:17:35;;;;;;;;;;;;;;;6.77;100.00;100478.78;5102871;28;19920;-82
2023/01/29 10:20:21;;;;;;;;;;;;;;;6.73;100.00;100469.38;5102062;28;19920;-83
2023/01/29 10:23:05;;;;;;;;;;;;;;;6.82;100.00;100457.88;5102664;28;20736;-82
2023/01/29 10:25:35;;;;;;;;;;;;;;;6.95;100.00;100433.19;5107961;28;20277;-82
2023/01/29 10:28:02;;;;;;;;;;;;;;;6.92;100.00;100422.03;5107000;28;19926;-84
2023/01/29 10:30:31;;;;;;;;;;;;;;;7.10;100.00;100444.97;5108359;28;19930;-82
2023/01/29 10:33:00;;;;;;;;;;;;;;;7.13;100.00;100425.78;5111186;28;19942;-83
2023/01/29 10:35:30;;;;;;;;;;;;;;;7.14;100.00;100435.31;5111968;28;19930;-84
2023/01/29 10:38:01;;;;;;;;;;;;;;;7.15;100.00;100435.28;5106618;28;19981;-83
2023/01/29 10:40:38;;;;;;;;;;;;;;;7.31;100.00;100421.78;5103765;28;19954;-82
2023/01/29 10:43:34;;;;;;;;;;;;;;;7.31;100.00;100412.25;5105623;28;19919;-83
2023/01/29 10:46:04;;;;;;;;;;;;;;;7.35;100.00;100406.03;5092515;28;19927;-83
2023/01/29 10:48:32;;;;;;;;;;;;;;;7.41;100.00;100403.25;5100438;28;20285;-83
2023/01/29 10:51:02;;;;;;;;;;;;;;;7.40;100.00;100400.69;5100169;28;19973;-83
2023/01/29 10:53:38;;;;;;;;;;;;;;;7.51;100.00;100374.34;5102532;28;20330;-83
2023/01/29 10:56:19;;;;;;;;;;;;;;;7.45;100.00;100377.94;5111425;28;20373;-83
2023/01/29 10:58:57;;;;;;;;;;;;;;;7.65;100.00;100366.94;5100472;28;19973;-83
2023/01/29 11:01:25;;;;;;;;;;;;;;;7.70;100.00;100370.25;5107270;28;19923;-83
2023/01/29 11:03:58;;;;;;;;;;;;;;;7.78;100.00;100357.81;5110618;28;19919;-84
2023/01/29 11:06:34;;;;;;;;;;;;;;;7.63;100.00;100365.25;5111068;28;19931;-83
2023/01/29 11:09:23;;;;;;;;;;;;;;;7.67;100.00;100343.44;5110662;28;19923;-84
2023/01/29 11:11:56;;;;;;;;;;;;;;;7.84;100.00;100343.72;5090156;28;19920;-84
2023/01/29 11:14:24;;;;;;;;;;;;;;;7.88;100.00;100327.09;5112502;28;19920;-84
2023/01/29 11:16:52;;;;;;;;;;;;;;;7.89;100.00;100315.75;5114790;28;19927;-84
2023/01/29 11:19:34;;;;;;;;;;;;;;;8.12;100.00;100303.72;5112119;28;19927;-84
2023/01/29 11:22:03;;;;;;;;;;;;;;;8.24;100.00;100300.69;5112891;28;19920;-83
2023/01/29 11:24:29;;;;;;;;;;;;;;;8.46;100.00;100281.69;5111920;28;19926;-84
2023/01/29 11:26:58;;;;;;;;;;;;;;;8.77;100.00;100283.19;5114089;28;19920;-84
2023/01/29 11:29:31;;;;;;;;;;;;;;;8.88;100.00;100267.97;5112709;28;19923;-84
2023/01/29 11:31:58;;;;;;;;;;;;;;;8.87;100.00;100269.72;5113524;28;19927;-84
2023/01/29 11:34:32;;;;;;;;;;;;;;;9.06;100.00;100272.47;5113899;28;20406;-84
2023/01/29 11:37:00;;;;;;;;;;;;;;;9.18;100.00;100233.72;5113300;28;19919;-83
2023/01/29 11:39:27;;;;;;;;;;;;;;;9.48;100.00;100221.19;5104617;28;19924;-83
2023/01/29 11:41:59;;;;;;;;;;;;;;;9.69;100.00;100216.84;5109324;27;19920;-84
2023/01/29 11:44:25;;;;;;;;;;;;;;;9.90;100.00;100209.84;5103860;27;19920;-84
2023/01/29 11:46:52;;;;;;;;;;;;;;;10.16;100.00;100197.38;5104981;28;19920;-83
2023/01/29 11:49:39;;;;;;;;;;;;;;;10.19;100.00;100173.69;5104411;28;19931;-84
2023/01/29 11:52:09;;;;;;;;;;;;;;;10.50;100.00;100170.56;5101398;28;19927;-84
2023/01/29 11:54:44;;;;;;;;;;;;;;;10.57;100.00;100155.41;5099582;28;19923;-83
2023/01/29 11:57:26;;;;;;;;;;;;;;;10.68;100.00;100144.44;5107498;28;19927;-81
2023/01/29 11:59:53;;;;;;;;;;;;;;;10.69;100.00;100130.44;5102366;28;20402;-84
2023/01/29 12:02:20;;;;;;;;;;;;;;;11.05;100.00;100133.03;5107087;28;19920;-83
2023/01/29 12:04:47;;;;;;;;;;;;;;;11.13;100.00;100128.25;5104213;28;19919;-83
2023/01/29 12:07:15;;;;;;;;;;;;;;;11.13;100.00;100128.25;5101499;28;20376;-83
2023/01/29 12:09:48;;;;;;;;;;;;;;;11.18;100.00;100117.56;5104894;28;19920;-83
2023/01/29 12:12:27;;;;;;;;;;;;;;;11.21;100.00;100115.63;5100256;28;19930;-84
2023/01/29 12:15:13;;;;;;;;;;;;;;;11.37;100.00;100093.91;5104654;27;19965;-84
2023/01/29 12:17:41;;;;;;;;;;;;;;;11.37;100.00;100084.25;5107358;28;20482;-83
2023/01/29 12:20:13;;;;;;;;;;;;;;;11.36;100.00;100072.06;5106948;27;19926;-83
2023/01/29 12:22:41;;;;;;;;;;;;;;;11.38;100.00;100078.09;5100036;28;19920;-84
2023/01/29 12:25:19;;;;;;;;;;;;;;;11.43;100.00;100080.47;5102592;28;19919;-84
2023/01/29 12:27:52;;;;;;;;;;;;;;;11.42;100.00;100078.78;5105860;28;19923;-83
2023/01/29 12:30:22;;;;;;;;;;;;;;;11.45;100.00;100080.38;5108300;28;19924;-84
2023/01/29 12:32:54;;;;;;;;;;;;;;;11.45;100.00;100083.84;5109967;28;19919;-83
2023/01/29 12:35:20;;;;;;;;;;;;;;;11.59;100.00;100081.34;5101352;28;20388;-84
2023/01/29 12:37:54;;;;;;;;;;;;;;;11.45;100.00;100073.38;5102588;28;19990;-84
2023/01/29 12:40:23;;;;;;;;;;;;;;;11.65;100.00;100051.38;5106487;28;19923;-85
2023/01/29 12:42:54;;;;;;;;;;;;;;;11.59;100.00;100049.06;5108437;28;19926;-83
2023/01/29 12:45:22;;;;;;;;;;;;;;;11.65;100.00;100045.25;5102466;28;19920;-83
2023/01/29 12:48:01;;;;;;;;;;;;;;;11.74;100.00;100043.00;5102066;28;19935;-83
2023/01/29 12:50:27;;;;;;;;;;;;;;;11.69;100.00;100023.22;5101641;28;19919;-84
2023/01/29 12:52:57;;;;;;;;;;;;;;;11.78;100.00;100030.56;5105119;28;19920;-84
2023/01/29 12:55:26;;;;;;;;;;;;;;;11.83;100.00;100039.03;5106740;28;19927;-84
2023/01/29 12:57:58;;;;;;;;;;;;;;;11.79;100.00;100034.88;5109447;27;19969;-83
2023/01/29 13:00:28;;;;;;;;;;;;;;;11.87;100.00;100043.19;5103878;28;20369;-84
2023/01/29 13:03:07;;;;;;;;;;;;;;;11.86;100.00;100064.25;5105776;28;19927;-83
2023/01/29 13:05:46;;;;;;;;;;;;;;;11.82;100.00;100074.06;5104435;28;19928;-82
2023/01/29 13:08:25;;;;;;;;;;;;;;;11.66;100.00;100066.16;5103533;28;20307;-82
2023/01/29 13:10:53;;;;;;;;;;;;;;;11.72;100.00;100065.84;5107844;28;19924;-83
2023/01/29 13:13:35;;;;;;;;;;;;;;;11.61;100.00;100054.22;5110312;27;20422;-82
2023/01/29 13:16:08;;;;;;;;;;;;;;;11.53;100.00;100058.09;5107332;28;19920;-83
2023/01/29 13:18:39;;;;;;;;;;;;;;;11.67;100.00;100061.75;5103294;28;19923;-82